Latest Weather Observations for Warwick

IDQ60801

Issued at 11:02 am EST Thursday 21 November 2019 (issued every 10 minutes, with the page automatically refreshed every 10 minutes)

About weather observations | Map of weather stations | Latest weather observations for QLD | Other Formats
Station Details ID: 041525 Name: WARWICK Lat: -28.21 Lon: 152.10 Height: 475.4 m
Data from the previous 72 hours. | See also: Recent months at Warwick
Date/Time
EST
Temp
°C
App
Temp
°C
Dew
Point
°C
Rel
Hum
%
Delta-T
°C
Wind Press
QNH
hPa
Press
MSL
hPa
Rain since
9am
mm
Dir  Spd
km/h
Gust
km/h
Spd
kts
Gust
kts
21/11:00am 27.7 24.8 12.9 40 8.8 NE 20 37 11 20 1018.5 1016.4 0.0
21/10:30am 27.0 24.4 13.7 44 8.0 NE 20 33 11 18 1018.8 1016.8 0.0
21/10:00am 27.6 26.1 15.3 47 7.6 ENE 17 26 9 14 1019.0 1017.0 0.0
21/09:30am 25.7 24.4 14.8 51 6.7 NNE 15 26 8 14 1019.2 1017.2 0.0
21/09:00am 25.2 23.9 14.9 52 6.3 NE 15 26 8 14 1019.5 1017.4 0.0
21/08:30am 24.4 22.5 15.3 57 5.6 NE 19 30 10 16 1019.6 1017.5 0.0
21/08:00am 24.1 22.2 15.3 58 5.4 ENE 19 28 10 15 1019.3 1017.3 0.0
21/07:30am 23.4 21.5 15.2 60 5.0 NE 19 28 10 15 1019.3 1017.3 0.0
21/07:00am 22.6 21.3 15.7 65 4.2 NE 17 26 9 14 1019.2 1017.2 0.0
21/06:30am 22.4 21.9 16.0 67 3.9 NE 13 19 7 10 1019.0 1017.0 0.0
21/06:00am 21.9 20.7 16.2 70 3.5 ENE 17 22 9 12 1018.6 1016.6 0.0
21/05:30am 21.8 21.1 16.3 71 3.4 NE 15 20 8 11 1018.2 1016.1 0.0
21/05:00am 21.9 21.0 16.8 73 3.2 NE 17 22 9 12 1017.8 1015.7 0.0
21/04:30am 21.8 21.7 16.1 70 3.5 ENE 11 17 6 9 1017.5 1015.4 0.0
21/04:00am 21.5 21.3 15.6 69 3.6 ENE 11 19 6 10 1017.0 1015.0 0.0
21/03:30am 21.6 20.6 15.7 69 3.6 ENE 15 20 8 11 1016.7 1014.7 0.0
21/03:00am 22.1 20.9 16.1 69 3.7 ENE 17 24 9 13 1016.5 1014.4 0.0
21/02:30am 22.2 22.3 16.5 70 3.5 ENE 11 26 6 14 1016.5 1014.4 0.0
21/02:00am 22.2 22.4 16.7 71 3.4 ENE 11 17 6 9 1016.6 1014.5 0.0
21/01:30am 22.1 21.9 16.8 72 3.3 E 13 19 7 10 1016.5 1014.4 0.0
21/01:00am 22.3 21.4 16.8 71 3.4 E 17 24 9 13 1017.0 1015.0 0.0
21/12:30am 21.9 21.1 16.2 70 3.5 E 15 19 8 10 1017.1 1015.1 0.0
21/12:00am 22.2 21.0 16.2 69 3.7 E 17 22 9 12 1017.1 1015.1 0.0
 
Date/Time
EST
Temp
°C
App
Temp
°C
Dew
Point
°C
Rel
Hum
%
Delta-T
°C
Wind Press
QNH
hPa
Press
MSL
hPa
Rain since
9am
mm
Dir  Spd
km/h
Gust
km/h
Spd
kts
Gust
kts
20/11:30pm 22.6 20.6 16.4 68 3.8 ENE 22 33 12 18 1017.3 1015.2 0.0
20/11:00pm 23.2 21.8 17.0 68 3.9 ENE 20 30 11 16 1017.3 1015.2 0.0
20/10:30pm 22.8 22.6 17.7 73 3.2 SE 15 22 8 12 1017.1 1015.1 0.0
20/10:00pm 22.8 22.7 17.9 74 3.1 SE 15 24 8 13 1016.8 1014.8 0.0
20/09:30pm 22.7 21.0 18.0 75 3.0 SE 24 39 13 21 1016.5 1014.4 0.0
20/09:00pm 22.9 21.1 17.8 73 3.2 SE 24 39 13 21 1016.2 1014.1 0.0
20/08:30pm 22.9 20.2 17.6 72 3.4 SE 28 43 15 23 1015.8 1013.7 0.0
20/08:00pm 22.8 20.6 16.8 69 3.7 SE 24 39 13 21 1015.5 1013.4 0.0
20/07:30pm 23.1 20.3 16.4 66 4.2 SE 26 39 14 21 1014.8 1012.7 0.0
20/07:00pm 23.8 20.1 16.1 62 4.8 SE 30 44 16 24 1014.4 1012.3 0.0
20/06:30pm 24.8 21.4 15.7 57 5.6 SE 28 44 15 24 1013.9 1011.8 0.0
20/06:00pm 26.7 23.0 16.0 52 6.7 SE 30 50 16 27 1013.1 1011.0 0.0
20/05:30pm 28.5 24.3 15.8 46 8.0 SSE 32 50 17 27 1012.1 1010.0 0.0
20/05:21pm 28.9 24.6 15.8 45 8.2 SE 33 52 18 28 1011.8 1009.7 0.0
20/05:00pm 30.7 26.2 14.8 38 9.9 SSE 32 46 17 25 1011.1 1008.9 0.0
20/04:37pm 32.2 26.8 13.9 33 11.3 SE 35 54 19 29 1010.6 1008.4 0.0
20/04:30pm 33.2 28.9 13.3 30 12.2 S 28 54 15 29 1009.7 1007.6 0.0
20/04:27pm 33.8 31.0 12.7 27 12.9 SW 19 48 10 26 1009.7 1007.6 0.0
20/04:00pm 37.6 33.8 -0.6 9 19.4 W 9 15 5 8 1009.5 1007.4 0.0
20/03:30pm 37.5 34.3 0.7 10 19.1 SSW 7 15 4 8 1009.7 1007.6 0.0
20/03:00pm 37.5 33.5 0.7 10 19.1 WSW 11 22 6 12 1009.8 1007.7 0.0
20/02:30pm 36.5 32.8 0.0 10 18.6 NE 9 17 5 9 1010.0 1007.9 0.0
20/02:00pm 36.3 32.2 -0.2 10 18.5 ESE 11 20 6 11 1010.3 1008.2 0.0
20/01:30pm 35.7 31.9 1.9 12 17.6 NE 11 17 6 9 1011.0 1008.8 0.0
20/01:00pm 35.1 30.3 2.6 13 17.1 WNW 17 28 9 15 1011.5 1009.4 0.0
20/12:30pm 35.6 32.8 3.0 13 17.3 NNW 7 20 4 11 1011.9 1009.8 0.0
20/12:00pm 35.5 31.5 2.9 13 17.3 S 13 20 7 11 1012.2 1010.1 0.0
20/11:30am 34.7 30.8 -1.4 10 17.8 N 9 13 5 7 1012.9 1010.7 0.0
20/11:00am 33.9 32.2 8.5 21 14.6 WNW 7 17 4 9 1013.5 1011.4 0.0
20/10:30am 32.5 30.4 9.9 25 13.2 W 11 20 6 11 1013.9 1011.8 0.0
20/10:00am 30.9 29.1 10.8 29 11.8 W 11 20 6 11 1014.4 1012.3 0.0
20/09:30am 29.6 28.3 12.5 35 10.2 WNW 11 17 6 9 1014.7 1012.6 0.0
20/09:00am 28.3 27.0 13.8 41 8.8 NW 13 22 7 12 1015.1 1013.0 0.0
20/08:30am 27.3 25.7 14.0 44 8.1 NW 15 28 8 15 1015.4 1013.3 0.0
20/08:00am 25.0 25.2 13.2 48 7.0 S 4 9 2 5 1015.6 1013.5 0.0
20/07:30am 22.9 23.3 12.5 52 6.1 S 2 7 1 4 1015.7 1013.6 0.0
20/07:00am 21.1 21.3 10.6 51 5.9 CALM 0 0 0 0 1015.8 1013.7 0.0
20/06:30am 18.8 18.8 9.8 56 4.9 CALM 0 0 0 0 1015.8 1013.7 0.0
20/06:00am 16.6 16.2 8.3 58 4.3 CALM 0 0 0 0 1015.4 1013.3 0.0
20/05:30am 15.4 15.6 10.6 73 2.6 CALM 0 0 0 0 1015.2 1013.1 0.0
20/05:00am 14.6 14.3 8.5 67 3.2 CALM 0 0 0 0 1015.1 1013.0 0.0
20/04:30am 15.2 15.0 8.9 66 3.3 CALM 0 0 0 0 1014.5 1012.4 0.0
20/04:00am 15.6 15.6 9.9 69 3.0 CALM 0 0 0 0 1014.2 1012.1 0.0
20/03:30am 15.7 14.8 9.1 65 3.5 WSW 4 9 2 5 1014.2 1012.1 0.0
20/03:00am 16.5 16.1 8.2 58 4.3 CALM 0 0 0 0 1013.9 1011.8 0.0
20/02:30am 17.2 17.1 9.4 60 4.2 CALM 0 0 0 0 1013.9 1011.8 0.0
20/02:00am 17.8 17.7 9.4 58 4.5 CALM 0 0 0 0 1013.9 1011.8 0.0
20/01:30am 18.4 18.2 9.2 55 4.9 CALM 0 0 0 0 1013.9 1011.8 0.0
20/01:00am 19.5 20.0 11.5 60 4.5 CALM 0 0 0 0 1014.0 1011.9 0.0
20/12:30am 21.4 21.3 12.0 55 5.4 NE 4 7 2 4 1014.4 1012.3 0.0
20/12:00am 20.4 20.7 10.8 54 5.4 CALM 0 0 0 0 1014.6 1012.5 0.0
 
Date/Time
EST
Temp
°C
App
Temp
°C
Dew
Point
°C
Rel
Hum
%
Delta-T
°C
Wind Press
QNH
hPa
Press
MSL
hPa
Rain since
9am
mm
Dir  Spd
km/h
Gust
km/h
Spd
kts
Gust
kts
19/11:30pm 21.7 21.9 10.5 49 6.3 CALM 0 0 0 0 1014.6 1012.5 0.0
19/11:00pm 21.0 20.8 8.9 46 6.5 CALM 0 0 0 0 1014.6 1012.5 0.0
19/10:30pm 20.7 19.3 7.3 42 7.0 S 4 13 2 7 1014.7 1012.6 0.0
19/10:00pm 22.4 21.4 7.4 38 8.0 NE 2 11 1 6 1014.3 1012.2 0.0
19/09:30pm 23.7 20.7 4.1 28 9.9 NE 9 11 5 6 1013.9 1011.8 0.0
19/09:00pm 22.8 20.0 3.4 28 9.6 NE 7 11 4 6 1013.7 1011.6 0.0
19/08:30pm 26.2 23.9 4.6 25 11.2 W 6 11 3 6 1013.4 1011.3 0.0
19/08:00pm 26.2 24.2 6.3 28 10.6 W 6 9 3 5 1013.1 1011.0 0.0
19/07:30pm 26.0 23.8 6.1 28 10.5 W 7 7 4 4 1012.8 1010.6 0.0
19/07:00pm 26.6 24.9 6.1 27 10.9 W 4 7 2 4 1012.5 1010.4 0.0
19/06:30pm 28.3 26.0 5.8 24 12.0 WSW 7 11 4 6 1012.3 1010.2 0.0
19/06:00pm 31.1 27.5 4.8 19 14.0 WSW 13 20 7 11 1011.8 1009.7 0.0
19/05:30pm 32.1 28.6 5.6 19 14.4 WSW 13 20 7 11 1011.5 1009.4 0.0
19/05:00pm 32.7 29.5 6.8 20 14.4 WSW 13 19 7 10 1011.3 1009.2 0.0
19/04:30pm 32.6 29.1 7.4 21 14.1 SW 15 22 8 12 1011.2 1009.1 0.0
19/04:00pm 32.9 29.0 5.5 18 14.9 W 15 24 8 13 1011.2 1009.1 0.0
19/03:30pm 32.7 29.5 5.3 18 14.9 W 11 22 6 12 1011.4 1009.3 0.0
19/03:00pm 33.3 28.8 4.1 16 15.6 WSW 17 26 9 14 1011.7 1009.6 0.0
19/02:30pm 33.1 29.4 6.4 19 14.8 WSW 15 26 8 14 1012.0 1009.9 0.0
19/02:00pm 31.9 27.4 6.9 21 13.9 SW 20 32 11 17 1012.3 1010.2 0.0
19/01:30pm 31.4 28.3 7.1 22 13.5 WNW 13 28 7 15 1012.9 1010.7 0.0
19/01:00pm 31.8 27.9 8.7 24 13.2 W 19 26 10 14 1013.5 1011.4 0.0
19/12:30pm 30.6 28.4 9.5 27 12.1 WNW 11 20 6 11 1014.1 1012.0 0.0
19/12:00pm 29.7 26.3 9.3 28 11.6 W 17 28 9 15 1014.8 1012.7 0.0
19/11:30am 29.6 26.9 11.6 33 10.6 W 17 32 9 17 1015.3 1013.2 0.0
19/11:00am 28.4 25.6 11.5 35 9.9 WNW 17 28 9 15 1015.9 1013.8 0.0
19/10:30am 27.8 25.4 11.4 36 9.6 WNW 15 26 8 14 1016.3 1014.2 0.0
19/10:00am 26.1 24.6 11.8 41 8.3 NW 11 20 6 11 1016.7 1014.7 0.0
19/09:30am 24.4 22.6 12.0 46 7.2 WNW 13 20 7 11 1017.3 1015.2 0.0
19/09:00am 23.3 21.9 12.3 50 6.4 NNW 11 15 6 8 1017.5 1015.4 0.0
19/08:30am 21.6 20.7 12.5 56 5.3 NW 9 19 5 10 1017.8 1015.7 0.0
19/08:00am 20.3 19.7 12.3 60 4.6 WNW 7 17 4 9 1017.9 1015.8 0.0
19/07:30am 18.7 18.3 11.0 61 4.3 SSW 4 9 2 5 1018.1 1016.0 0.0
19/07:00am 17.2 17.1 10.8 66 3.5 SSW 2 9 1 5 1018.1 1016.0 0.0
19/06:30am 15.3 15.4 10.1 71 2.8 CALM 0 0 0 0 1018.0 1015.9 0.0
19/06:00am 13.3 13.2 9.4 77 2.0 CALM 0 0 0 0 1017.7 1015.6 0.0
19/05:30am 11.5 10.9 7.6 77 1.9 CALM 0 0 0 0 1017.5 1015.4 0.0
19/05:00am 10.7 9.9 6.3 74 2.1 CALM 0 0 0 0 1017.1 1015.1 0.0
19/04:30am 11.8 11.1 6.9 72 2.4 CALM 0 0 0 0 1016.6 1014.5 0.0
19/04:00am 12.8 12.7 9.6 81 1.7 CALM 0 0 0 0 1016.2 1014.1 0.0
19/03:30am 13.3 13.4 10.1 81 1.7 CALM 0 0 0 0 1016.1 1014.0 0.0
19/03:00am 13.5 13.6 10.1 80 1.8 CALM 0 0 0 0 1016.0 1013.9 0.0
19/02:30am 13.6 13.5 9.5 76 2.1 CALM 0 0 0 0 1016.0 1013.9 0.0
19/02:00am 14.4 14.3 9.6 73 2.5 CALM 0 0 0 0 1016.0 1013.9 0.0
19/01:30am 14.1 13.8 8.7 70 2.8 CALM 0 0 0 0 1016.1 1014.0 0.0
19/01:00am 15.5 15.6 10.1 70 2.9 CALM 0 0 0 0 1016.2 1014.1 0.0
19/12:30am 16.1 16.3 10.4 69 3.1 CALM 0 0 0 0 1016.5 1014.4 0.0
19/12:00am 15.4 15.5 10.2 71 2.8 CALM 0 0 0 0 1016.3 1014.2 0.0
 
Date/Time
EST
Temp
°C
App
Temp
°C
Dew
Point
°C
Rel
Hum
%
Delta-T
°C
Wind Press
QNH
hPa
Press
MSL
hPa
Rain since
9am
mm
Dir  Spd
km/h
Gust
km/h
Spd
kts
Gust
kts
18/11:30pm 16.6 16.7 10.0 65 3.6 CALM 0 7 0 4 1016.6 1014.5 0.0
18/11:00pm 17.3 16.3 10.9 66 3.5 NE 7 11 4 6 1016.9 1014.9 0.0
18/10:30pm 17.9 17.8 10.8 63 3.9 ENE 2 7 1 4 1016.9 1014.9 0.0
18/10:00pm 18.6 17.5 10.7 60 4.4 ENE 7 11 4 6 1016.9 1014.9 0.0
18/09:30pm 18.7 18.4 10.0 57 4.7 E 2 9 1 5 1016.9 1014.9 0.0
18/09:00pm 19.3 18.8 8.0 48 5.9 CALM 0 0 0 0 1016.8 1014.8 0.0
18/08:30pm 20.6 17.3 9.5 49 6.1 ENE 17 26 9 14 1016.8 1014.8 0.0
18/08:00pm 21.1 16.3 8.7 45 6.7 NE 24 30 13 16 1016.6 1014.5 0.0
18/07:30pm 21.9 17.0 8.4 42 7.3 NE 24 33 13 18 1016.4 1014.3 0.0
18/07:00pm 22.6 17.2 8.0 39 7.8 NE 26 32 14 17 1016.0 1013.9 0.0
18/06:30pm 23.9 19.1 7.5 35 8.8 NE 22 32 12 17 1016.0 1013.9 0.0
18/06:00pm 25.2 20.5 7.8 33 9.4 NE 22 32 12 17 1015.6 1013.5 0.0
18/05:30pm 26.3 21.2 7.8 31 10.1 NNE 24 30 13 16 1015.3 1013.2 0.0
18/05:00pm 27.5 23.1 7.4 28 11.0 NNE 20 32 11 17 1014.9 1012.9 0.0
18/04:30pm 27.9 25.6 5.5 24 11.9 ENE 7 13 4 7 1014.8 1012.7 0.0
18/04:00pm 28.0 25.3 5.6 24 11.9 ENE 9 17 5 9 1014.8 1012.7 0.0
18/03:30pm 27.7 24.5 5.3 24 11.8 ENE 11 15 6 8 1014.9 1012.9 0.0
18/03:00pm 28.4 26.0 5.3 23 12.2 E 7 13 4 7 1015.2 1013.1 0.0
18/02:30pm 28.1 25.6 5.0 23 12.1 WSW 7 15 4 8 1015.4 1013.3 0.0
18/02:00pm 27.7 25.3 5.3 24 11.8 ENE 7 15 4 8 1015.8 1013.7 0.0
18/01:30pm 27.5 25.6 7.4 28 11.0 NNE 7 17 4 9 1016.2 1014.1 0.0
18/01:00pm 27.1 24.7 7.0 28 10.9 N 9 15 5 8 1016.5 1014.4 0.0
18/12:30pm 27.5 24.9 7.9 29 10.8 NE 11 26 6 14 1016.8 1014.8 0.0
18/12:00pm 26.3 23.2 7.4 30 10.2 ENE 13 26 7 14 1017.3 1015.2 0.0
18/11:30am 25.8 23.6 7.9 32 9.8 ESE 9 20 5 11 1017.8 1015.7 0.0

Other formats

Comma delimited format used in spreadsheet applications
http://www.bom.gov.au/fwo/IDQ60801/IDQ60801.94555.axf

JavaScript Object Notation format (JSON) in row-major order
http://www.bom.gov.au/fwo/IDQ60801/IDQ60801.94555.json

Data quality

Most of these data are generated automatically and are frequently updated. Quality checks on data are not normally performed. It is possible for incorrect values to appear. Refer to information at About Latest Weather Observations and please check the disclaimer before using these data.